CEST,Max TemperatureF,Mean TemperatureF,Min TemperatureF,Max Dew PointF,MeanDew PointF,Min DewpointF,Max Humidity, Mean Humidity, Min Humidity, Max Sea Level PressureIn, Mean Sea Level PressureIn, Min Sea Level PressureIn, Max VisibilityMiles, Mean VisibilityMiles, Min VisibilityMiles, Max Wind SpeedMPH, Mean Wind SpeedMPH, Max Gust SpeedMPH,PrecipitationIn, CloudCover, Events, WindDirDegrees
2013-3-1,55,47,39,41,38,36,93,65,47,30.06,29.99,29.89,,,,5,1,,0.00,,,12
2013-3-2,,,,,,,,,,,,,,,,,,,0.00,,,-1
2013-3-3,,,,,,,,,,,,,,,,,,,,,,
2013-3-4,62,48,35,45,41,28,100,66,48,30.12,30.10,30.09,6,6,6,6,3,,0.00,1,,219
2013-3-5,59,48,37,43,34,-22,100,55,5,30.15,30.10,30.01,6,6,6,7,3,,0.00,1,,296
2013-3-6,62,56,50,54,46,36,100,70,39,29.80,29.76,29.71,6,5,2,23,12,,0.00,3,Rain,157
2013-3-7,60,56,51,55,53,52,100,88,77,29.74,29.72,29.71,6,6,5,10,3,,0.00,5,Rain,166
2013-3-8,59,56,53,55,53,50,94,86,77,29.74,29.70,29.65,6,6,6,10,8,,0.00,3,Rain,173
2013-3-9,,,,,,,,,,,,,,,,,,,0.00,,,-1
2013-3-10,,,,,,,,,,,,,,,,,,,,,,
2013-3-11,57,54,50,52,49,46,100,83,67,29.62,29.59,29.56,6,6,4,14,5,,0.00,6,Rain-Thunderstorm,216
2013-3-12,59,52,44,52,47,43,100,86,67,29.59,29.54,29.50,6,5,2,22,7,30,0.00,5,Rain-Thunderstorm,115
2013-3-13,55,48,41,48,44,41,100,85,67,29.50,29.45,29.36,6,6,5,9,4,,0.00,5,Rain,130
2013-3-14,59,50,41,45,39,30,100,67,48,29.21,29.14,29.09,6,6,4,21,8,,0.00,3,,332
2013-3-15,55,47,39,37,32,25,87,55,33,29.71,29.55,29.39,6,6,6,15,3,,0.00,5,,62
2013-3-16,,,,,,,,,,,,,,,,,,,0.00,,,-1
2013-3-17,,,,,,,,,,,,,,,,,,,,,,
2013-3-18,57,55,51,52,49,46,94,80,72,29.65,29.57,29.53,6,5,3,21,16,,0.00,5,Rain,160
2013-3-19,60,53,46,46,44,41,93,65,51,29.80,29.77,29.74,6,6,6,13,6,,0.00,4,,222
2013-3-20,57,48,39,50,44,37,100,80,55,29.77,29.73,29.68,6,5,2,7,4,,0.00,3,Rain,207
2013-3-21,60,52,44,43,38,32,87,53,36,29.89,29.86,29.80,6,6,6,17,11,,0.00,1,,335
2013-3-22,66,50,35,46,40,36,100,56,37,29.92,29.89,29.86,,,,13,4,,0.00,,,264
2013-3-23,,,,,,,,,,,,,,,,,,,0.00,,,-1
2013-3-24,,,,,,,,,,,,,,,,,,,,,,
2013-3-25,60,56,50,54,49,43,100,83,67,29.42,29.35,29.33,6,5,2,14,5,,0.00,5,Rain,289
2013-3-26,59,50,42,50,47,41,100,81,67,29.56,29.54,29.53,6,5,1,14,3,,0.00,3,Rain,156
2013-3-27,62,52,41,48,45,41,100,66,48,29.74,29.68,29.65,6,6,4,9,2,,0.00,3,,218
2013-3-28,57,52,48,54,51,48,100,89,82,29.86,29.85,29.80,6,6,2,10,3,,0.00,5,Rain,167
2013-3-29,64,60,57,54,52,52,82,73,68,29.86,29.82,29.77,6,6,5,13,9,,0.00,3,,191
2013-3-30,,,,,,,,,,,,,,,,,,,0.00,,,-1
2013-3-30,,,,,,,,,,,,,,,,,,,,,,
2013-4-1,,,,,,,,,,,,,,,,,,,,,,